RJTH(METAR)
12/10 17:00
RJTH 100800Z 08011KT 9999 FEW005 SCT012 BKN018 17/17 Q1019 RMK
A3010=
戻る
トップページへ戻る
IMOC Co,.Ltd.